sensor_id;sensor_type;location;lat;lon;timestamp;P1;durP1;ratioP1;P2;durP2;ratioP2
73841;SDS011;62184;52.006;5.924;2023-02-05T00:00:20;43.97;;;16.50;;
73841;SDS011;62184;52.006;5.924;2023-02-05T00:02:47;42.47;;;17.30;;
73841;SDS011;62184;52.006;5.924;2023-02-05T00:05:16;40.13;;;17.48;;
73841;SDS011;62184;52.006;5.924;2023-02-05T00:07:42;49.55;;;18.17;;
73841;SDS011;62184;52.006;5.924;2023-02-05T00:10:09;42.63;;;17.88;;
73841;SDS011;62184;52.006;5.924;2023-02-05T00:12:35;42.53;;;18.55;;
73841;SDS011;62184;52.006;5.924;2023-02-05T00:15:02;44.78;;;19.15;;
73841;SDS011;62184;52.006;5.924;2023-02-05T00:17:29;44.67;;;18.92;;
73841;SDS011;62184;52.006;5.924;2023-02-05T00:19:55;48.08;;;19.15;;
73841;SDS011;62184;52.006;5.924;2023-02-05T00:22:24;49.85;;;18.92;;
73841;SDS011;62184;52.006;5.924;2023-02-05T00:24:51;50.78;;;19.38;;
73841;SDS011;62184;52.006;5.924;2023-02-05T00:27:17;45.33;;;19.40;;
73841;SDS011;62184;52.006;5.924;2023-02-05T00:29:44;44.58;;;19.92;;
73841;SDS011;62184;52.006;5.924;2023-02-05T00:32:10;47.05;;;19.92;;
73841;SDS011;62184;52.006;5.924;2023-02-05T00:34:36;45.17;;;19.83;;
73841;SDS011;62184;52.006;5.924;2023-02-05T00:37:03;49.28;;;20.05;;
73841;SDS011;62184;52.006;5.924;2023-02-05T00:39:32;46.83;;;19.77;;
73841;SDS011;62184;52.006;5.924;2023-02-05T00:41:58;46.58;;;19.25;;
73841;SDS011;62184;52.006;5.924;2023-02-05T00:44:25;44.55;;;19.02;;
73841;SDS011;62184;52.006;5.924;2023-02-05T00:46:51;48.63;;;19.25;;
73841;SDS011;62184;52.006;5.924;2023-02-05T00:49:17;48.22;;;18.58;;
73841;SDS011;62184;52.006;5.924;2023-02-05T00:51:44;46.17;;;19.13;;
73841;SDS011;62184;52.006;5.924;2023-02-05T00:54:10;48.97;;;19.52;;
73841;SDS011;62184;52.006;5.924;2023-02-05T00:56:39;51.17;;;19.90;;
73841;SDS011;62184;52.006;5.924;2023-02-05T00:59:06;50.05;;;19.67;;
73841;SDS011;62184;52.006;5.924;2023-02-05T01:01:32;51.78;;;19.92;;
73841;SDS011;62184;52.006;5.924;2023-02-05T01:03:59;51.80;;;19.98;;
73841;SDS011;62184;52.006;5.924;2023-02-05T01:06:25;53.58;;;20.65;;
73841;SDS011;62184;52.006;5.924;2023-02-05T01:08:52;62.28;;;22.10;;
73841;SDS011;62184;52.006;5.924;2023-02-05T01:11:18;64.47;;;22.30;;
73841;SDS011;62184;52.006;5.924;2023-02-05T01:13:47;65.15;;;21.95;;
73841;SDS011;62184;52.006;5.924;2023-02-05T01:16:14;61.92;;;23.13;;
73841;SDS011;62184;52.006;5.924;2023-02-05T01:18:40;68.07;;;23.47;;
73841;SDS011;62184;52.006;5.924;2023-02-05T01:21:07;69.47;;;23.43;;
73841;SDS011;62184;52.006;5.924;2023-02-05T01:23:33;69.72;;;23.67;;
73841;SDS011;62184;52.006;5.924;2023-02-05T01:26:00;68.03;;;24.58;;
73841;SDS011;62184;52.006;5.924;2023-02-05T01:28:26;71.60;;;24.38;;
73841;SDS011;62184;52.006;5.924;2023-02-05T01:30:55;77.35;;;26.10;;
73841;SDS011;62184;52.006;5.924;2023-02-05T01:33:22;74.03;;;25.60;;
73841;SDS011;62184;52.006;5.924;2023-02-05T01:35:48;76.40;;;27.13;;
73841;SDS011;62184;52.006;5.924;2023-02-05T01:38:15;79.18;;;27.73;;
73841;SDS011;62184;52.006;5.924;2023-02-05T01:40:41;72.10;;;27.38;;
73841;SDS011;62184;52.006;5.924;2023-02-05T01:43:09;75.65;;;27.33;;
73841;SDS011;62184;52.006;5.924;2023-02-05T01:45:49;76.45;;;27.17;;
73841;SDS011;62184;52.006;5.924;2023-02-05T01:48:31;74.65;;;27.80;;
73841;SDS011;62184;52.006;5.924;2023-02-05T01:51:05;76.60;;;27.90;;
73841;SDS011;62184;52.006;5.924;2023-02-05T01:53:38;76.07;;;28.73;;
73841;SDS011;62184;52.006;5.924;2023-02-05T01:56:07;80.00;;;28.80;;
73841;SDS011;62184;52.006;5.924;2023-02-05T01:58:38;77.35;;;28.50;;
73841;SDS011;62184;52.006;5.924;2023-02-05T02:01:12;77.90;;;27.70;;
73841;SDS011;62184;52.006;5.924;2023-02-05T02:03:38;77.72;;;28.13;;
73841;SDS011;62184;52.006;5.924;2023-02-05T02:06:06;77.53;;;29.48;;
73841;SDS011;62184;52.006;5.924;2023-02-05T02:08:33;78.57;;;27.38;;
73841;SDS011;62184;52.006;5.924;2023-02-05T02:10:59;78.32;;;28.55;;
73841;SDS011;62184;52.006;5.924;2023-02-05T02:13:32;82.53;;;28.80;;
73841;SDS011;62184;52.006;5.924;2023-02-05T02:16:02;83.00;;;29.00;;
73841;SDS011;62184;52.006;5.924;2023-02-05T02:18:34;83.25;;;29.38;;
73841;SDS011;62184;52.006;5.924;2023-02-05T02:24:30;84.28;;;30.13;;
73841;SDS011;62184;52.006;5.924;2023-02-05T02:27:31;84.80;;;29.90;;
73841;SDS011;62184;52.006;5.924;2023-02-05T02:30:10;81.68;;;28.80;;
73841;SDS011;62184;52.006;5.924;2023-02-05T02:32:46;84.13;;;29.50;;
73841;SDS011;62184;52.006;5.924;2023-02-05T02:35:24;84.20;;;29.30;;
73841;SDS011;62184;52.006;5.924;2023-02-05T02:38:01;88.05;;;28.83;;
73841;SDS011;62184;52.006;5.924;2023-02-05T02:40:37;84.80;;;29.08;;
73841;SDS011;62184;52.006;5.924;2023-02-05T02:43:12;80.57;;;29.02;;
73841;SDS011;62184;52.006;5.924;2023-02-05T02:45:47;81.07;;;28.83;;
73841;SDS011;62184;52.006;5.924;2023-02-05T02:48:20;81.63;;;29.23;;
73841;SDS011;62184;52.006;5.924;2023-02-05T02:50:52;81.75;;;28.55;;
73841;SDS011;62184;52.006;5.924;2023-02-05T02:53:23;78.47;;;28.20;;
73841;SDS011;62184;52.006;5.924;2023-02-05T02:55:55;75.80;;;28.42;;
73841;SDS011;62184;52.006;5.924;2023-02-05T02:58:30;77.45;;;27.63;;
73841;SDS011;62184;52.006;5.924;2023-02-05T03:01:04;76.45;;;27.77;;
73841;SDS011;62184;52.006;5.924;2023-02-05T03:03:37;73.38;;;28.42;;
73841;SDS011;62184;52.006;5.924;2023-02-05T03:06:09;71.97;;;27.13;;
73841;SDS011;62184;52.006;5.924;2023-02-05T03:08:41;75.15;;;27.83;;
73841;SDS011;62184;52.006;5.924;2023-02-05T03:11:18;72.63;;;27.67;;
73841;SDS011;62184;52.006;5.924;2023-02-05T03:13:47;72.35;;;26.77;;
73841;SDS011;62184;52.006;5.924;2023-02-05T03:16:13;66.75;;;26.98;;
73841;SDS011;62184;52.006;5.924;2023-02-05T03:18:44;62.97;;;25.50;;
73841;SDS011;62184;52.006;5.924;2023-02-05T03:21:12;72.10;;;27.07;;
73841;SDS011;62184;52.006;5.924;2023-02-05T03:23:46;65.80;;;26.75;;
73841;SDS011;62184;52.006;5.924;2023-02-05T03:26:23;64.53;;;24.75;;
73841;SDS011;62184;52.006;5.924;2023-02-05T03:28:55;61.25;;;24.98;;
73841;SDS011;62184;52.006;5.924;2023-02-05T03:31:27;61.75;;;24.58;;
73841;SDS011;62184;52.006;5.924;2023-02-05T03:34:15;60.08;;;24.90;;
73841;SDS011;62184;52.006;5.924;2023-02-05T03:37:03;63.00;;;25.00;;
73841;SDS011;62184;52.006;5.924;2023-02-05T03:39:44;61.67;;;24.45;;
73841;SDS011;62184;52.006;5.924;2023-02-05T03:42:28;62.50;;;24.97;;
73841;SDS011;62184;52.006;5.924;2023-02-05T03:45:09;62.30;;;24.27;;
73841;SDS011;62184;52.006;5.924;2023-02-05T03:47:54;60.72;;;23.92;;
73841;SDS011;62184;52.006;5.924;2023-02-05T03:50:39;54.17;;;22.15;;
73841;SDS011;62184;52.006;5.924;2023-02-05T03:53:18;49.07;;;21.30;;
73841;SDS011;62184;52.006;5.924;2023-02-05T03:55:54;51.03;;;21.50;;
73841;SDS011;62184;52.006;5.924;2023-02-05T03:58:31;47.55;;;20.90;;
73841;SDS011;62184;52.006;5.924;2023-02-05T04:01:07;48.60;;;20.92;;
73841;SDS011;62184;52.006;5.924;2023-02-05T04:03:37;47.78;;;20.42;;
73841;SDS011;62184;52.006;5.924;2023-02-05T04:06:05;48.20;;;20.52;;
73841;SDS011;62184;52.006;5.924;2023-02-05T04:08:32;47.70;;;20.85;;
73841;SDS011;62184;52.006;5.924;2023-02-05T04:10:58;47.95;;;21.65;;
73841;SDS011;62184;52.006;5.924;2023-02-05T04:13:25;46.67;;;20.80;;
73841;SDS011;62184;52.006;5.924;2023-02-05T04:15:51;48.53;;;20.17;;
73841;SDS011;62184;52.006;5.924;2023-02-05T04:18:20;46.75;;;19.70;;
73841;SDS011;62184;52.006;5.924;2023-02-05T04:20:47;44.15;;;19.00;;
73841;SDS011;62184;52.006;5.924;2023-02-05T04:23:14;41.55;;;18.67;;
73841;SDS011;62184;52.006;5.924;2023-02-05T04:25:40;41.35;;;18.15;;
73841;SDS011;62184;52.006;5.924;2023-02-05T04:28:08;40.05;;;18.73;;
73841;SDS011;62184;52.006;5.924;2023-02-05T04:30:35;37.58;;;17.08;;
73841;SDS011;62184;52.006;5.924;2023-02-05T04:33:02;36.03;;;17.08;;
73841;SDS011;62184;52.006;5.924;2023-02-05T04:35:31;37.50;;;17.42;;
73841;SDS011;62184;52.006;5.924;2023-02-05T04:37:57;34.78;;;16.00;;
73841;SDS011;62184;52.006;5.924;2023-02-05T04:40:24;36.50;;;16.30;;
73841;SDS011;62184;52.006;5.924;2023-02-05T04:42:50;33.35;;;15.68;;
73841;SDS011;62184;52.006;5.924;2023-02-05T04:45:16;34.25;;;15.88;;
73841;SDS011;62184;52.006;5.924;2023-02-05T04:47:43;32.33;;;15.68;;
73841;SDS011;62184;52.006;5.924;2023-02-05T04:50:10;33.63;;;15.30;;
73841;SDS011;62184;52.006;5.924;2023-02-05T04:52:39;34.42;;;15.18;;
73841;SDS011;62184;52.006;5.924;2023-02-05T04:55:05;33.45;;;14.85;;
73841;SDS011;62184;52.006;5.924;2023-02-05T04:57:32;30.90;;;14.88;;
73841;SDS011;62184;52.006;5.924;2023-02-05T04:59:59;32.40;;;14.88;;
73841;SDS011;62184;52.006;5.924;2023-02-05T05:02:25;32.13;;;13.85;;
73841;SDS011;62184;52.006;5.924;2023-02-05T05:04:52;32.95;;;14.18;;
73841;SDS011;62184;52.006;5.924;2023-02-05T05:07:18;33.72;;;14.20;;
73841;SDS011;62184;52.006;5.924;2023-02-05T05:09:47;33.25;;;14.68;;
73841;SDS011;62184;52.006;5.924;2023-02-05T05:12:14;36.13;;;15.23;;
73841;SDS011;62184;52.006;5.924;2023-02-05T05:14:40;34.78;;;15.55;;
73841;SDS011;62184;52.006;5.924;2023-02-05T05:17:07;38.08;;;17.20;;
73841;SDS011;62184;52.006;5.924;2023-02-05T05:19:33;37.75;;;16.77;;
73841;SDS011;62184;52.006;5.924;2023-02-05T05:22:00;43.63;;;16.98;;
73841;SDS011;62184;52.006;5.924;2023-02-05T05:24:26;41.92;;;17.52;;
73841;SDS011;62184;52.006;5.924;2023-02-05T05:26:55;42.53;;;17.90;;
73841;SDS011;62184;52.006;5.924;2023-02-05T05:29:22;44.17;;;16.92;;
73841;SDS011;62184;52.006;5.924;2023-02-05T05:31:50;42.63;;;17.50;;
73841;SDS011;62184;52.006;5.924;2023-02-05T05:34:17;47.00;;;18.00;;
73841;SDS011;62184;52.006;5.924;2023-02-05T05:36:44;45.95;;;18.48;;
73841;SDS011;62184;52.006;5.924;2023-02-05T05:39:10;48.72;;;19.55;;
73841;SDS011;62184;52.006;5.924;2023-02-05T05:41:37;46.45;;;18.95;;
73841;SDS011;62184;52.006;5.924;2023-02-05T05:44:06;51.78;;;19.63;;
73841;SDS011;62184;52.006;5.924;2023-02-05T05:46:34;50.67;;;19.83;;
73841;SDS011;62184;52.006;5.924;2023-02-05T05:49:02;44.92;;;18.23;;
73841;SDS011;62184;52.006;5.924;2023-02-05T05:51:29;44.17;;;18.45;;
73841;SDS011;62184;52.006;5.924;2023-02-05T05:53:56;44.88;;;18.45;;
73841;SDS011;62184;52.006;5.924;2023-02-05T05:56:22;42.20;;;17.23;;
73841;SDS011;62184;52.006;5.924;2023-02-05T05:58:49;34.38;;;14.95;;
73841;SDS011;62184;52.006;5.924;2023-02-05T06:01:18;26.45;;;12.25;;
73841;SDS011;62184;52.006;5.924;2023-02-05T06:03:46;29.45;;;12.15;;
73841;SDS011;62184;52.006;5.924;2023-02-05T06:06:12;24.92;;;11.77;;
73841;SDS011;62184;52.006;5.924;2023-02-05T06:08:39;24.75;;;10.43;;
73841;SDS011;62184;52.006;5.924;2023-02-05T06:11:05;23.73;;;9.90;;
73841;SDS011;62184;52.006;5.924;2023-02-05T06:13:32;24.23;;;10.00;;
73841;SDS011;62184;52.006;5.924;2023-02-05T06:15:58;23.10;;;9.37;;
73841;SDS011;62184;52.006;5.924;2023-02-05T06:18:27;21.70;;;8.57;;
73841;SDS011;62184;52.006;5.924;2023-02-05T06:20:54;19.90;;;8.45;;
73841;SDS011;62184;52.006;5.924;2023-02-05T06:23:20;18.17;;;7.93;;
73841;SDS011;62184;52.006;5.924;2023-02-05T06:25:47;15.10;;;6.55;;
73841;SDS011;62184;52.006;5.924;2023-02-05T06:28:13;9.93;;;4.05;;
73841;SDS011;62184;52.006;5.924;2023-02-05T06:30:40;10.23;;;3.90;;
73841;SDS011;62184;52.006;5.924;2023-02-05T06:33:06;9.00;;;3.05;;
73841;SDS011;62184;52.006;5.924;2023-02-05T06:35:35;10.68;;;2.35;;
73841;SDS011;62184;52.006;5.924;2023-02-05T06:38:02;8.07;;;2.08;;
73841;SDS011;62184;52.006;5.924;2023-02-05T06:40:28;8.30;;;1.88;;
73841;SDS011;62184;52.006;5.924;2023-02-05T06:42:55;10.52;;;1.80;;
73841;SDS011;62184;52.006;5.924;2023-02-05T06:45:21;9.85;;;1.98;;
73841;SDS011;62184;52.006;5.924;2023-02-05T06:47:48;8.60;;;1.90;;
73841;SDS011;62184;52.006;5.924;2023-02-05T06:50:15;13.32;;;2.00;;
73841;SDS011;62184;52.006;5.924;2023-02-05T06:52:44;10.95;;;1.60;;
73841;SDS011;62184;52.006;5.924;2023-02-05T06:55:10;11.37;;;1.80;;
73841;SDS011;62184;52.006;5.924;2023-02-05T06:57:37;13.37;;;1.77;;
73841;SDS011;62184;52.006;5.924;2023-02-05T07:00:04;11.00;;;1.50;;
73841;SDS011;62184;52.006;5.924;2023-02-05T07:02:32;9.35;;;1.73;;
73841;SDS011;62184;52.006;5.924;2023-02-05T07:04:59;10.25;;;1.85;;
73841;SDS011;62184;52.006;5.924;2023-02-05T07:07:25;7.45;;;1.58;;
73841;SDS011;62184;52.006;5.924;2023-02-05T07:09:54;8.63;;;1.80;;
73841;SDS011;62184;52.006;5.924;2023-02-05T07:12:21;10.52;;;1.77;;
73841;SDS011;62184;52.006;5.924;2023-02-05T07:14:48;8.27;;;1.70;;
73841;SDS011;62184;52.006;5.924;2023-02-05T07:17:14;12.48;;;1.90;;
73841;SDS011;62184;52.006;5.924;2023-02-05T07:19:41;12.60;;;1.90;;
73841;SDS011;62184;52.006;5.924;2023-02-05T07:22:07;9.70;;;1.75;;
73841;SDS011;62184;52.006;5.924;2023-02-05T07:24:34;9.35;;;1.75;;
73841;SDS011;62184;52.006;5.924;2023-02-05T07:27:03;6.90;;;1.45;;
73841;SDS011;62184;52.006;5.924;2023-02-05T07:29:29;11.37;;;1.83;;
73841;SDS011;62184;52.006;5.924;2023-02-05T07:31:56;12.63;;;1.85;;
73841;SDS011;62184;52.006;5.924;2023-02-05T07:34:22;9.45;;;1.58;;
73841;SDS011;62184;52.006;5.924;2023-02-05T07:36:49;9.45;;;1.83;;
73841;SDS011;62184;52.006;5.924;2023-02-05T07:39:16;10.02;;;1.88;;
73841;SDS011;62184;52.006;5.924;2023-02-05T07:41:43;12.18;;;1.98;;
73841;SDS011;62184;52.006;5.924;2023-02-05T07:44:12;11.40;;;2.10;;
73841;SDS011;62184;52.006;5.924;2023-02-05T07:46:38;11.63;;;2.10;;
73841;SDS011;62184;52.006;5.924;2023-02-05T07:49:05;12.85;;;2.05;;
73841;SDS011;62184;52.006;5.924;2023-02-05T07:51:31;13.80;;;2.05;;
73841;SDS011;62184;52.006;5.924;2023-02-05T07:53:58;12.27;;;2.20;;
73841;SDS011;62184;52.006;5.924;2023-02-05T07:56:24;13.60;;;1.85;;
73841;SDS011;62184;52.006;5.924;2023-02-05T07:58:50;11.00;;;2.20;;
73841;SDS011;62184;52.006;5.924;2023-02-05T08:01:19;10.75;;;1.80;;
73841;SDS011;62184;52.006;5.924;2023-02-05T08:03:46;13.03;;;2.10;;
73841;SDS011;62184;52.006;5.924;2023-02-05T08:06:13;12.53;;;1.90;;
73841;SDS011;62184;52.006;5.924;2023-02-05T08:08:41;14.85;;;2.30;;
73841;SDS011;62184;52.006;5.924;2023-02-05T08:11:09;14.45;;;2.38;;
73841;SDS011;62184;52.006;5.924;2023-02-05T08:13:40;15.23;;;2.40;;
73841;SDS011;62184;52.006;5.924;2023-02-05T08:16:07;14.17;;;2.27;;
73841;SDS011;62184;52.006;5.924;2023-02-05T08:18:37;15.10;;;2.60;;
73841;SDS011;62184;52.006;5.924;2023-02-05T08:21:03;15.50;;;2.58;;
73841;SDS011;62184;52.006;5.924;2023-02-05T08:23:30;16.03;;;2.43;;
73841;SDS011;62184;52.006;5.924;2023-02-05T08:25:57;17.03;;;2.03;;
73841;SDS011;62184;52.006;5.924;2023-02-05T08:28:25;16.58;;;2.72;;
73841;SDS011;62184;52.006;5.924;2023-02-05T08:30:53;17.65;;;2.72;;
73841;SDS011;62184;52.006;5.924;2023-02-05T08:33:20;16.35;;;2.70;;
73841;SDS011;62184;52.006;5.924;2023-02-05T08:35:50;20.23;;;2.80;;
73841;SDS011;62184;52.006;5.924;2023-02-05T08:38:16;17.95;;;2.88;;
73841;SDS011;62184;52.006;5.924;2023-02-05T08:40:43;17.42;;;2.60;;
73841;SDS011;62184;52.006;5.924;2023-02-05T08:43:09;18.60;;;2.45;;
73841;SDS011;62184;52.006;5.924;2023-02-05T08:45:36;17.83;;;2.58;;
73841;SDS011;62184;52.006;5.924;2023-02-05T08:48:02;18.92;;;2.65;;
73841;SDS011;62184;52.006;5.924;2023-02-05T08:50:29;14.63;;;2.72;;
73841;SDS011;62184;52.006;5.924;2023-02-05T08:52:58;18.10;;;2.67;;
73841;SDS011;62184;52.006;5.924;2023-02-05T08:55:24;15.75;;;2.78;;
73841;SDS011;62184;52.006;5.924;2023-02-05T08:57:51;14.87;;;2.20;;
73841;SDS011;62184;52.006;5.924;2023-02-05T09:00:17;17.17;;;2.47;;
73841;SDS011;62184;52.006;5.924;2023-02-05T09:02:44;16.95;;;2.60;;
73841;SDS011;62184;52.006;5.924;2023-02-05T09:05:11;19.63;;;3.00;;
73841;SDS011;62184;52.006;5.924;2023-02-05T09:07:37;21.60;;;2.73;;
73841;SDS011;62184;52.006;5.924;2023-02-05T09:10:08;19.65;;;3.03;;
73841;SDS011;62184;52.006;5.924;2023-02-05T09:12:37;20.13;;;3.00;;
73841;SDS011;62184;52.006;5.924;2023-02-05T09:15:04;16.52;;;2.70;;
73841;SDS011;62184;52.006;5.924;2023-02-05T09:17:32;22.07;;;3.03;;
73841;SDS011;62184;52.006;5.924;2023-02-05T09:19:59;18.33;;;3.13;;
73841;SDS011;62184;52.006;5.924;2023-02-05T09:22:25;23.35;;;3.45;;
73841;SDS011;62184;52.006;5.924;2023-02-05T09:24:52;17.17;;;3.20;;
73841;SDS011;62184;52.006;5.924;2023-02-05T09:27:21;17.52;;;2.80;;
73841;SDS011;62184;52.006;5.924;2023-02-05T09:29:47;19.30;;;3.43;;
73841;SDS011;62184;52.006;5.924;2023-02-05T09:32:14;20.30;;;3.30;;
73841;SDS011;62184;52.006;5.924;2023-02-05T09:34:40;18.90;;;3.10;;
73841;SDS011;62184;52.006;5.924;2023-02-05T09:37:07;20.92;;;3.58;;
73841;SDS011;62184;52.006;5.924;2023-02-05T09:39:33;18.60;;;3.30;;
73841;SDS011;62184;52.006;5.924;2023-02-05T09:42:00;21.00;;;3.45;;
73841;SDS011;62184;52.006;5.924;2023-02-05T09:44:44;22.45;;;3.22;;
73841;SDS011;62184;52.006;5.924;2023-02-05T09:47:26;21.58;;;3.28;;
73841;SDS011;62184;52.006;5.924;2023-02-05T09:50:04;25.20;;;3.83;;
73841;SDS011;62184;52.006;5.924;2023-02-05T09:52:41;22.92;;;3.50;;
73841;SDS011;62184;52.006;5.924;2023-02-05T09:55:15;22.25;;;3.53;;
73841;SDS011;62184;52.006;5.924;2023-02-05T09:57:48;20.23;;;3.55;;
73841;SDS011;62184;52.006;5.924;2023-02-05T10:00:21;23.33;;;3.60;;
73841;SDS011;62184;52.006;5.924;2023-02-05T10:02:56;23.85;;;3.67;;
73841;SDS011;62184;52.006;5.924;2023-02-05T10:05:35;19.48;;;3.35;;
73841;SDS011;62184;52.006;5.924;2023-02-05T10:08:13;16.35;;;3.03;;
73841;SDS011;62184;52.006;5.924;2023-02-05T10:10:50;27.25;;;4.28;;
73841;SDS011;62184;52.006;5.924;2023-02-05T10:13:24;21.35;;;3.50;;
73841;SDS011;62184;52.006;5.924;2023-02-05T10:16:12;18.90;;;3.30;;
73841;SDS011;62184;52.006;5.924;2023-02-05T10:19:02;18.80;;;3.03;;
73841;SDS011;62184;52.006;5.924;2023-02-05T10:21:55;17.10;;;3.10;;
73841;SDS011;62184;52.006;5.924;2023-02-05T10:24:50;17.10;;;3.38;;
73841;SDS011;62184;52.006;5.924;2023-02-05T10:27:48;17.85;;;3.58;;
73841;SDS011;62184;52.006;5.924;2023-02-05T10:30:29;19.30;;;3.63;;
73841;SDS011;62184;52.006;5.924;2023-02-05T10:33:09;14.07;;;3.00;;
73841;SDS011;62184;52.006;5.924;2023-02-05T10:35:43;20.02;;;3.65;;
73841;SDS011;62184;52.006;5.924;2023-02-05T10:38:22;20.00;;;3.47;;
73841;SDS011;62184;52.006;5.924;2023-02-05T10:40:51;19.77;;;3.50;;
73841;SDS011;62184;52.006;5.924;2023-02-05T10:43:23;19.30;;;3.10;;
73841;SDS011;62184;52.006;5.924;2023-02-05T10:45:58;17.15;;;3.10;;
73841;SDS011;62184;52.006;5.924;2023-02-05T10:48:32;19.85;;;3.45;;
73841;SDS011;62184;52.006;5.924;2023-02-05T10:51:08;18.30;;;3.20;;
73841;SDS011;62184;52.006;5.924;2023-02-05T10:53:39;21.92;;;4.07;;
73841;SDS011;62184;52.006;5.924;2023-02-05T10:56:07;19.88;;;3.25;;
73841;SDS011;62184;52.006;5.924;2023-02-05T10:58:42;17.30;;;3.25;;
73841;SDS011;62184;52.006;5.924;2023-02-05T11:01:17;16.33;;;3.03;;
73841;SDS011;62184;52.006;5.924;2023-02-05T11:03:59;20.67;;;3.28;;
73841;SDS011;62184;52.006;5.924;2023-02-05T11:06:31;18.90;;;3.38;;
73841;SDS011;62184;52.006;5.924;2023-02-05T11:09:17;19.95;;;3.50;;
73841;SDS011;62184;52.006;5.924;2023-02-05T11:11:56;22.13;;;3.70;;
73841;SDS011;62184;52.006;5.924;2023-02-05T11:14:26;18.38;;;3.28;;
73841;SDS011;62184;52.006;5.924;2023-02-05T11:17:02;19.02;;;3.15;;
73841;SDS011;62184;52.006;5.924;2023-02-05T11:19:37;19.55;;;3.47;;
73841;SDS011;62184;52.006;5.924;2023-02-05T11:22:04;22.97;;;3.57;;
73841;SDS011;62184;52.006;5.924;2023-02-05T11:24:31;20.73;;;3.45;;
73841;SDS011;62184;52.006;5.924;2023-02-05T11:29:56;21.08;;;3.55;;
73841;SDS011;62184;52.006;5.924;2023-02-05T11:32:32;15.65;;;2.90;;
73841;SDS011;62184;52.006;5.924;2023-02-05T11:35:15;25.45;;;4.32;;
73841;SDS011;62184;52.006;5.924;2023-02-05T11:37:46;20.85;;;3.80;;
73841;SDS011;62184;52.006;5.924;2023-02-05T11:40:21;18.77;;;3.35;;
73841;SDS011;62184;52.006;5.924;2023-02-05T11:43:00;23.13;;;3.95;;
73841;SDS011;62184;52.006;5.924;2023-02-05T11:45:31;21.95;;;3.55;;
73841;SDS011;62184;52.006;5.924;2023-02-05T11:48:03;20.42;;;3.60;;
73841;SDS011;62184;52.006;5.924;2023-02-05T11:50:49;21.67;;;4.03;;
73841;SDS011;62184;52.006;5.924;2023-02-05T11:53:16;18.85;;;3.35;;
73841;SDS011;62184;52.006;5.924;2023-02-05T11:55:45;19.30;;;4.45;;
73841;SDS011;62184;52.006;5.924;2023-02-05T11:58:21;20.67;;;3.43;;
73841;SDS011;62184;52.006;5.924;2023-02-05T12:00:51;23.10;;;3.50;;
73841;SDS011;62184;52.006;5.924;2023-02-05T12:03:19;22.27;;;3.63;;
73841;SDS011;62184;52.006;5.924;2023-02-05T12:05:50;22.77;;;4.13;;
73841;SDS011;62184;52.006;5.924;2023-02-05T12:08:27;24.80;;;3.85;;
73841;SDS011;62184;52.006;5.924;2023-02-05T12:11:06;25.67;;;4.20;;
73841;SDS011;62184;52.006;5.924;2023-02-05T12:14:00;18.97;;;3.50;;
73841;SDS011;62184;52.006;5.924;2023-02-05T12:16:41;23.25;;;3.70;;
73841;SDS011;62184;52.006;5.924;2023-02-05T12:19:23;20.83;;;3.55;;
73841;SDS011;62184;52.006;5.924;2023-02-05T12:22:02;19.33;;;3.72;;
73841;SDS011;62184;52.006;5.924;2023-02-05T12:24:44;21.17;;;3.75;;
73841;SDS011;62184;52.006;5.924;2023-02-05T12:27:30;19.75;;;3.10;;
73841;SDS011;62184;52.006;5.924;2023-02-05T12:30:28;20.17;;;4.15;;
73841;SDS011;62184;52.006;5.924;2023-02-05T12:33:18;19.83;;;3.20;;
73841;SDS011;62184;52.006;5.924;2023-02-05T12:36:17;17.63;;;3.38;;
73841;SDS011;62184;52.006;5.924;2023-02-05T12:39:06;16.20;;;3.33;;
73841;SDS011;62184;52.006;5.924;2023-02-05T12:41:56;16.98;;;3.33;;
73841;SDS011;62184;52.006;5.924;2023-02-05T12:44:36;20.25;;;3.78;;
73841;SDS011;62184;52.006;5.924;2023-02-05T12:47:21;18.15;;;3.10;;
73841;SDS011;62184;52.006;5.924;2023-02-05T12:50:14;19.00;;;3.28;;
73841;SDS011;62184;52.006;5.924;2023-02-05T12:53:10;20.90;;;3.53;;
73841;SDS011;62184;52.006;5.924;2023-02-05T12:56:03;17.67;;;3.00;;
73841;SDS011;62184;52.006;5.924;2023-02-05T12:58:52;17.98;;;3.40;;
73841;SDS011;62184;52.006;5.924;2023-02-05T13:01:28;17.08;;;3.20;;
73841;SDS011;62184;52.006;5.924;2023-02-05T13:04:08;21.00;;;3.63;;
73841;SDS011;62184;52.006;5.924;2023-02-05T13:06:51;15.57;;;3.05;;
73841;SDS011;62184;52.006;5.924;2023-02-05T13:09:28;18.63;;;3.22;;
73841;SDS011;62184;52.006;5.924;2023-02-05T13:12:10;19.03;;;3.30;;
73841;SDS011;62184;52.006;5.924;2023-02-05T13:14:43;20.30;;;3.75;;
73841;SDS011;62184;52.006;5.924;2023-02-05T13:17:27;17.27;;;3.60;;
73841;SDS011;62184;52.006;5.924;2023-02-05T13:19:59;17.95;;;2.75;;
73841;SDS011;62184;52.006;5.924;2023-02-05T13:22:30;21.93;;;3.40;;
73841;SDS011;62184;52.006;5.924;2023-02-05T13:25:04;15.40;;;3.10;;
73841;SDS011;62184;52.006;5.924;2023-02-05T13:27:48;15.07;;;3.00;;
73841;SDS011;62184;52.006;5.924;2023-02-05T13:30:24;17.63;;;2.83;;
73841;SDS011;62184;52.006;5.924;2023-02-05T13:32:57;16.48;;;3.00;;
73841;SDS011;62184;52.006;5.924;2023-02-05T13:35:30;16.88;;;3.30;;
73841;SDS011;62184;52.006;5.924;2023-02-05T13:38:13;18.40;;;3.33;;
73841;SDS011;62184;52.006;5.924;2023-02-05T13:41:17;13.95;;;2.65;;
73841;SDS011;62184;52.006;5.924;2023-02-05T13:44:12;17.63;;;3.20;;
73841;SDS011;62184;52.006;5.924;2023-02-05T13:47:30;17.85;;;3.00;;
73841;SDS011;62184;52.006;5.924;2023-02-05T13:53:41;13.52;;;2.50;;
73841;SDS011;62184;52.006;5.924;2023-02-05T13:56:29;16.40;;;2.78;;
73841;SDS011;62184;52.006;5.924;2023-02-05T13:59:17;18.23;;;3.25;;
73841;SDS011;62184;52.006;5.924;2023-02-05T14:01:51;19.48;;;3.33;;
73841;SDS011;62184;52.006;5.924;2023-02-05T14:04:22;14.82;;;3.15;;
73841;SDS011;62184;52.006;5.924;2023-02-05T14:06:55;13.98;;;3.20;;
73841;SDS011;62184;52.006;5.924;2023-02-05T14:09:34;17.63;;;3.20;;
73841;SDS011;62184;52.006;5.924;2023-02-05T14:12:07;17.13;;;2.75;;
73841;SDS011;62184;52.006;5.924;2023-02-05T14:14:48;15.20;;;2.63;;
73841;SDS011;62184;52.006;5.924;2023-02-05T14:17:53;15.93;;;2.53;;
73841;SDS011;62184;52.006;5.924;2023-02-05T14:20:36;17.52;;;3.25;;
73841;SDS011;62184;52.006;5.924;2023-02-05T14:23:15;17.27;;;3.00;;
73841;SDS011;62184;52.006;5.924;2023-02-05T14:26:23;17.67;;;2.92;;
73841;SDS011;62184;52.006;5.924;2023-02-05T14:32:15;15.88;;;3.05;;
73841;SDS011;62184;52.006;5.924;2023-02-05T14:35:31;17.67;;;3.30;;
73841;SDS011;62184;52.006;5.924;2023-02-05T14:38:14;15.60;;;2.85;;
73841;SDS011;62184;52.006;5.924;2023-02-05T14:40:58;16.03;;;2.80;;
73841;SDS011;62184;52.006;5.924;2023-02-05T14:43:30;18.48;;;3.33;;
73841;SDS011;62184;52.006;5.924;2023-02-05T14:46:02;17.67;;;2.90;;
73841;SDS011;62184;52.006;5.924;2023-02-05T14:48:35;12.80;;;2.50;;
73841;SDS011;62184;52.006;5.924;2023-02-05T14:51:15;16.48;;;3.40;;
73841;SDS011;62184;52.006;5.924;2023-02-05T14:53:55;15.02;;;3.20;;
73841;SDS011;62184;52.006;5.924;2023-02-05T14:56:27;18.60;;;3.40;;
73841;SDS011;62184;52.006;5.924;2023-02-05T14:59:00;17.60;;;3.20;;
73841;SDS011;62184;52.006;5.924;2023-02-05T15:01:41;17.23;;;3.40;;
73841;SDS011;62184;52.006;5.924;2023-02-05T15:07:11;16.05;;;2.97;;
73841;SDS011;62184;52.006;5.924;2023-02-05T15:09:49;18.02;;;3.55;;
73841;SDS011;62184;52.006;5.924;2023-02-05T15:12:32;17.33;;;3.50;;
73841;SDS011;62184;52.006;5.924;2023-02-05T15:15:23;21.27;;;4.25;;